Suez Canal Bridge — HODM — position and weather

sailwx.info

Track history (hours):
 
Tides and Currents Weather Stations Pressure Air Temp Water Temp Dewpoint Dewpoint Depression Visibility Wind Speed Wind Dir Waves Ship Positions

Suez Canal Bridge

Last reported at 2015-Jun-01 02:33 UTC. Time now 2015-Jul-01 23:12 UTC.
Position N 32°01' W 080°48'.
Warning: this ship's position is 30 days out of date.

Length 284.7 m; beam 40 m.

Type: Cargo ship. MMSI: 353704000.

Date/timePositionNaut miles runAvg speedWind from/ knotsBaromVisibWave heightAir tempDewpointWater temp
2015-Jun-01 02:33N 32°01' W 080°48'1212.0
2015-Jun-01 01:33N 32°05' W 081°02'6 5.6
2015-Jun-01 00:33N 32°07' W 081°08'1 1.2
2015-May-31 23:31N 32°08' W 081°09'0 0.0
2015-May-31 22:33N 32°08' W 081°09'0 0.0
2015-May-31 21:33N 32°08' W 081°09'0 0.0
2015-May-31 20:33N 32°08' W 081°09'0 0.0
2015-May-31 19:33N 32°08' W 081°09'0 0.0
2015-May-31 18:33N 32°08' W 081°09'0 0.0
2015-May-31 17:33N 32°08' W 081°09'0 0.0
2015-May-31 16:33N 32°08' W 081°09'0 0.0
2015-May-31 15:33N 32°08' W 081°09'0 0.0
2015-May-31 14:33N 32°08' W 081°09'0 0.0
2015-May-31 13:33N 32°08' W 081°09'0 0.0
2015-May-31 12:34N 32°08' W 081°09'0 0.0
2015-May-31 11:33N 32°08' W 081°09'0 0.0
2015-May-31 10:33N 32°08' W 081°09'0 0.0
2015-May-31 09:34N 32°08' W 081°09'0 0.0
2015-May-31 08:33N 32°08' W 081°09'0 0.0
2015-May-31 07:33N 32°08' W 081°09'0 0.0
2015-May-31 06:33N 32°08' W 081°09'0 0.0
2015-May-31 05:33N 32°08' W 081°09'0 0.0
2015-May-31 04:33N 32°08' W 081°09'0 0.0
2015-May-31 03:33N 32°08' W 081°09'0 0.0
2015-May-31 02:33N 32°08' W 081°09'1 1.1
2015-May-31 01:33N 32°07' W 081°08'5 5.1
2015-May-31 00:33N 32°05' W 081°03'9 9.4
2015-May-30 23:33N 32°02' W 080°52'1211.4
2015-May-30 22:32N 31°57' W 080°39'18 8.2
2015-May-30 20:21N 31°58' W 080°18'  
2015-May-27 18:11N 38°28' W 074°26'1313.6
2015-May-27 17:13N 38°40' W 074°18'913.7
2015-May-27 16:32N 38°48' W 074°12'1513.8
2015-May-27 15:27N 39°01' W 074°02'1314.8
2015-May-27 14:33N 39°13' W 073°55'1919.4
2015-May-27 13:33N 39°32' W 073°53'2019.1
2015-May-27 12:30N 39°52' W 073°51'1818.8
2015-May-27 11:34N 40°10' W 073°50'1716.8
2015-May-27 10:33N 40°27' W 073°48'1514.7
2015-May-27 09:33N 40°37' W 074°03'5 5.2
2015-May-27 08:33N 40°39' W 074°09'1 1.3
2015-May-27 07:32N 40°41' W 074°09'0 0.0
2015-May-27 06:32N 40°41' W 074°09'0 0.0
2015-May-27 05:29N 40°41' W 074°09'0 0.0
2015-May-27 04:32N 40°41' W 074°09'0 0.0
2015-May-27 03:32N 40°41' W 074°09'0 0.0
2015-May-27 02:32N 40°41' W 074°09'0 0.0
2015-May-27 01:32N 40°41' W 074°09'0 0.0
2015-May-27 00:32N 40°41' W 074°09'0 0.0
2015-May-26 23:32N 40°41' W 074°09'0 0.0
2015-May-26 22:32N 40°41' W 074°09'0 0.0
2015-May-26 21:32N 40°41' W 074°09'0 0.0
2015-May-26 20:32N 40°41' W 074°09'0 0.0
2015-May-26 19:32N 40°41' W 074°09'0 0.0
2015-May-26 18:32N 40°41' W 074°09'0 0.0
2015-May-26 17:32N 40°41' W 074°09'0 0.0
2015-May-26 16:32N 40°41' W 074°09'0 0.0
2015-May-26 15:32N 40°41' W 074°09'0 0.0
2015-May-26 14:32N 40°41' W 074°09'0 0.0
2015-May-26 13:32N 40°41' W 074°09'0 0.0
2015-May-26 12:32N 40°41' W 074°09'0 0.0
2015-May-26 11:26N 40°41' W 074°09'0 0.0
2015-May-26 10:32N 40°41' W 074°09'0 0.0
2015-May-26 09:32N 40°41' W 074°09'0 0.0
2015-May-26 08:32N 40°41' W 074°09'0 0.0
2015-May-26 07:32N 40°41' W 074°09'0 0.0
2015-May-26 06:32N 40°41' W 074°09'0 0.0
2015-May-26 05:32N 40°41' W 074°09'0 0.0
2015-May-26 04:32N 40°41' W 074°09'0 0.0
2015-May-26 03:32N 40°41' W 074°09'0 0.0
2015-May-26 02:32N 40°41' W 074°09'0 0.0
2015-May-26 01:32N 40°41' W 074°09'0 0.0
2015-May-26 00:32N 40°41' W 074°09'0 0.0
2015-May-25 23:32N 40°41' W 074°09'0 0.0
2015-May-25 22:32N 40°41' W 074°09'0 0.0
2015-May-25 21:32N 40°41' W 074°09'0 0.0
2015-May-25 20:32N 40°41' W 074°09'0 0.0
2015-May-25 19:29N 40°41' W 074°09'0 0.0
2015-May-25 18:32N 40°41' W 074°09'0 0.0
2015-May-25 17:32N 40°41' W 074°09'0 0.0
2015-May-25 16:32N 40°41' W 074°09'0 0.2
2015-May-25 15:33N 40°41' W 074°08'4 3.5
2015-May-25 14:33N 40°39' W 074°04'1110.7
2015-May-25 13:33N 40°30' W 073°57'1413.7
2015-May-25 12:33N 40°28' W 073°39'1919.4
2015-May-25 11:33N 40°29' W 073°14'2020.0
2015-May-25 10:33N 40°30' W 072°47'2020.1
2015-May-25 09:33N 40°31' W 072°21'2020.2
2015-May-25 08:33N 40°31' W 071°55'2020.3
2015-May-25 07:33N 40°31' W 071°28'2020.2
2015-May-25 06:33N 40°32' W 071°01'2020.2
2015-May-25 05:33N 40°33' W 070°35'2020.2
2015-May-25 04:33N 40°33' W 070°08'2020.3
2015-May-25 03:34N 40°33' W 069°41'2120.6
2015-May-25 02:33N 40°33' W 069°14'2121.1
2015-May-25 01:33N 40°29' W 068°47'2121.1
2015-May-25 00:33N 40°25' W 068°20'2121.0
2015-May-24 23:33N 40°20' W 067°53'  
Track history (hours):
 
Tides and Currents Weather Stations Pressure Air Temp Water Temp Dewpoint Dewpoint Depression Visibility Wind Speed Wind Dir Waves Ship Positions

Suez Canal Bridge

Last reported at 2015-Jun-01 02:33 UTC. Time now 2015-Jul-01 23:12 UTC.
Position N 32°01' W 080°48'.
Warning: this ship's position is 30 days out of date.

Length 284.7 m; beam 40 m.

Type: Cargo ship. MMSI: 353704000.

Date/timePositionNaut miles runAvg speedWind from/ knotsBaromVisibWave heightAir tempDewpointWater temp
2015-Jun-01 02:33N 32°01' W 080°48'1212.0
2015-Jun-01 01:33N 32°05' W 081°02'6 5.6
2015-Jun-01 00:33N 32°07' W 081°08'1 1.2
2015-May-31 23:31N 32°08' W 081°09'0 0.0
2015-May-31 22:33N 32°08' W 081°09'0 0.0
2015-May-31 21:33N 32°08' W 081°09'0 0.0
2015-May-31 20:33N 32°08' W 081°09'0 0.0
2015-May-31 19:33N 32°08' W 081°09'0 0.0
2015-May-31 18:33N 32°08' W 081°09'0 0.0
2015-May-31 17:33N 32°08' W 081°09'0 0.0
2015-May-31 16:33N 32°08' W 081°09'0 0.0
2015-May-31 15:33N 32°08' W 081°09'0 0.0
2015-May-31 14:33N 32°08' W 081°09'0 0.0
2015-May-31 13:33N 32°08' W 081°09'0 0.0
2015-May-31 12:34N 32°08' W 081°09'0 0.0
2015-May-31 11:33N 32°08' W 081°09'0 0.0
2015-May-31 10:33N 32°08' W 081°09'0 0.0
2015-May-31 09:34N 32°08' W 081°09'0 0.0
2015-May-31 08:33N 32°08' W 081°09'0 0.0
2015-May-31 07:33N 32°08' W 081°09'0 0.0
2015-May-31 06:33N 32°08' W 081°09'0 0.0
2015-May-31 05:33N 32°08' W 081°09'0 0.0
2015-May-31 04:33N 32°08' W 081°09'0 0.0
2015-May-31 03:33N 32°08' W 081°09'0 0.0
2015-May-31 02:33N 32°08' W 081°09'1 1.1
2015-May-31 01:33N 32°07' W 081°08'5 5.1
2015-May-31 00:33N 32°05' W 081°03'9 9.4
2015-May-30 23:33N 32°02' W 080°52'1211.4
2015-May-30 22:32N 31°57' W 080°39'18 8.2
2015-May-30 20:21N 31°58' W 080°18'  
2015-May-27 18:11N 38°28' W 074°26'1313.6
2015-May-27 17:13N 38°40' W 074°18'913.7
2015-May-27 16:32N 38°48' W 074°12'1513.8
2015-May-27 15:27N 39°01' W 074°02'1314.8
2015-May-27 14:33N 39°13' W 073°55'1919.4
2015-May-27 13:33N 39°32' W 073°53'2019.1
2015-May-27 12:30N 39°52' W 073°51'1818.8
2015-May-27 11:34N 40°10' W 073°50'1716.8
2015-May-27 10:33N 40°27' W 073°48'1514.7
2015-May-27 09:33N 40°37' W 074°03'5 5.2
2015-May-27 08:33N 40°39' W 074°09'1 1.3
2015-May-27 07:32N 40°41' W 074°09'0 0.0
2015-May-27 06:32N 40°41' W 074°09'0 0.0
2015-May-27 05:29N 40°41' W 074°09'0 0.0
2015-May-27 04:32N 40°41' W 074°09'0 0.0
2015-May-27 03:32N 40°41' W 074°09'0 0.0
2015-May-27 02:32N 40°41' W 074°09'0 0.0
2015-May-27 01:32N 40°41' W 074°09'0 0.0
2015-May-27 00:32N 40°41' W 074°09'0 0.0
2015-May-26 23:32N 40°41' W 074°09'0 0.0
2015-May-26 22:32N 40°41' W 074°09'0 0.0
2015-May-26 21:32N 40°41' W 074°09'0 0.0
2015-May-26 20:32N 40°41' W 074°09'0 0.0
2015-May-26 19:32N 40°41' W 074°09'0 0.0
2015-May-26 18:32N 40°41' W 074°09'0 0.0
2015-May-26 17:32N 40°41' W 074°09'0 0.0
2015-May-26 16:32N 40°41' W 074°09'0 0.0
2015-May-26 15:32N 40°41' W 074°09'0 0.0
2015-May-26 14:32N 40°41' W 074°09'0 0.0
2015-May-26 13:32N 40°41' W 074°09'0 0.0
2015-May-26 12:32N 40°41' W 074°09'0 0.0
2015-May-26 11:26N 40°41' W 074°09'0 0.0
2015-May-26 10:32N 40°41' W 074°09'0 0.0
2015-May-26 09:32N 40°41' W 074°09'0 0.0
2015-May-26 08:32N 40°41' W 074°09'0 0.0
2015-May-26 07:32N 40°41' W 074°09'0 0.0
2015-May-26 06:32N 40°41' W 074°09'0 0.0
2015-May-26 05:32N 40°41' W 074°09'0 0.0
2015-May-26 04:32N 40°41' W 074°09'0 0.0
2015-May-26 03:32N 40°41' W 074°09'0 0.0
2015-May-26 02:32N 40°41' W 074°09'0 0.0
2015-May-26 01:32N 40°41' W 074°09'0 0.0
2015-May-26 00:32N 40°41' W 074°09'0 0.0
2015-May-25 23:32N 40°41' W 074°09'0 0.0
2015-May-25 22:32N 40°41' W 074°09'0 0.0
2015-May-25 21:32N 40°41' W 074°09'0 0.0
2015-May-25 20:32N 40°41' W 074°09'0 0.0
2015-May-25 19:29N 40°41' W 074°09'0 0.0
2015-May-25 18:32N 40°41' W 074°09'0 0.0
2015-May-25 17:32N 40°41' W 074°09'0 0.0
2015-May-25 16:32N 40°41' W 074°09'0 0.2
2015-May-25 15:33N 40°41' W 074°08'4 3.5
2015-May-25 14:33N 40°39' W 074°04'1110.7
2015-May-25 13:33N 40°30' W 073°57'1413.7
2015-May-25 12:33N 40°28' W 073°39'1919.4
2015-May-25 11:33N 40°29' W 073°14'2020.0
2015-May-25 10:33N 40°30' W 072°47'2020.1
2015-May-25 09:33N 40°31' W 072°21'2020.2
2015-May-25 08:33N 40°31' W 071°55'2020.3
2015-May-25 07:33N 40°31' W 071°28'2020.2
2015-May-25 06:33N 40°32' W 071°01'2020.2
2015-May-25 05:33N 40°33' W 070°35'2020.2
2015-May-25 04:33N 40°33' W 070°08'2020.3
2015-May-25 03:34N 40°33' W 069°41'2120.6
2015-May-25 02:33N 40°33' W 069°14'2121.1
2015-May-25 01:33N 40°29' W 068°47'2121.1
2015-May-25 00:33N 40°25' W 068°20'2121.0
2015-May-24 23:33N 40°20' W 067°53'  

Dump ship's entire track history